Time;durP1;ratioP1;P1;durP2;ratioP2;P2;SDS_P1;SDS_P2;PMS_P1;PMS_P2;Temp;Humidity;BMP_temperature;BMP_pressure;BME280_temperature;BME280_humidity;BME280_pressure;Samples;Min_cycle;Max_cycle;Signal;HPM_P1;HPM_P2
2021/05/03 00:02:21;;;;;;;7.18;4.28;;;;;;;7.23;58.02;100471.16;5014103;28;20100;-63
2021/05/03 00:04:46;;;;;;;6.05;3.70;;;;;;;7.22;58.12;100466.81;4997743;28;20085;-63
2021/05/03 00:07:12;;;;;;;8.05;4.13;;;;;;;7.21;58.03;100465.06;5015291;28;20033;-63
2021/05/03 00:09:37;;;;;;;5.18;4.00;;;;;;;7.20;57.86;100464.19;5015303;28;20503;-63
2021/05/03 00:12:03;;;;;;;4.22;3.22;;;;;;;7.20;57.96;100465.88;5015323;28;20146;-62
2021/05/03 00:14:29;;;;;;;6.45;4.20;;;;;;;7.17;58.41;100461.50;5015537;28;20093;-63
2021/05/03 00:16:54;;;;;;;5.90;3.97;;;;;;;7.18;58.12;100465.84;5015346;28;20034;-62
2021/05/03 00:19:20;;;;;;;8.35;5.00;;;;;;;7.16;58.51;100459.75;4997427;28;20121;-62
2021/05/03 00:21:45;;;;;;;9.27;4.25;;;;;;;7.16;57.81;100459.75;5013953;28;20468;-62
2021/05/03 00:24:11;;;;;;;7.32;4.90;;;;;;;7.15;58.43;100460.56;4997644;28;20033;-62
2021/05/03 00:26:36;;;;;;;6.57;4.55;;;;;;;7.14;57.85;100471.69;5015194;28;20045;-62
2021/05/03 00:29:02;;;;;;;8.85;5.35;;;;;;;7.13;58.36;100464.78;4997379;28;20040;-62
2021/05/03 00:31:28;;;;;;;5.38;3.92;;;;;;;7.13;57.96;100469.94;5014701;28;20049;-62
2021/05/03 00:33:53;;;;;;;7.30;4.55;;;;;;;7.11;58.18;100469.88;4997259;28;20030;-64
2021/05/03 00:36:19;;;;;;;4.72;4.15;;;;;;;7.11;57.95;100467.31;5014905;28;20114;-63
2021/05/03 00:38:44;;;;;;;6.30;4.45;;;;;;;7.11;57.89;100472.47;5014288;28;20030;-63
2021/05/03 00:41:10;;;;;;;6.03;4.53;;;;;;;7.10;58.30;100470.72;5013811;28;20469;-63
2021/05/03 00:43:35;;;;;;;5.10;4.03;;;;;;;7.09;58.28;100465.47;4997541;28;20041;-62
2021/05/03 00:46:01;;;;;;;6.82;4.40;;;;;;;7.08;58.16;100468.91;5013515;28;20401;-62
2021/05/03 00:48:26;;;;;;;7.85;5.00;;;;;;;7.07;58.18;100472.31;5013647;28;20034;-62
2021/05/03 00:50:52;;;;;;;8.10;5.80;;;;;;;7.05;58.24;100472.22;5014672;28;20030;-62
2021/05/03 00:53:18;;;;;;;5.93;4.60;;;;;;;7.05;58.36;100467.06;5014679;28;20038;-62
2021/05/03 00:55:44;;;;;;;6.38;4.70;;;;;;;7.05;58.11;100469.66;5013497;28;20450;-63
2021/05/03 00:58:10;;;;;;;7.13;4.50;;;;;;;7.03;57.95;100470.44;4996940;28;20485;-63
2021/05/03 01:00:36;;;;;;;7.55;4.60;;;;;;;7.01;58.08;100463.50;5013206;28;20065;-62
2021/05/03 01:03:02;;;;;;;7.63;5.07;;;;;;;7.00;58.15;100469.47;5014740;28;20076;-63
2021/05/03 01:05:29;;;;;;;6.10;4.72;;;;;;;6.99;58.02;100462.56;5014400;28;20046;-63
2021/05/03 01:07:58;;;;;;;5.43;4.32;;;;;;;7.00;58.41;100461.75;5013067;28;20061;-63
2021/05/03 01:10:25;;;;;;;7.45;4.70;;;;;;;6.99;58.17;100464.28;4997001;28;20052;-62
2021/05/03 01:12:52;;;;;;;6.30;4.07;;;;;;;6.99;57.81;100457.41;5014485;28;20038;-62
2021/05/03 01:15:22;;;;;;;6.03;4.65;;;;;;;6.98;58.31;100457.38;5013877;28;20117;-62
2021/05/03 01:17:56;;;;;;;6.53;4.97;;;;;;;6.97;58.46;100456.47;5014358;28;20049;-63
2021/05/03 01:20:24;;;;;;;10.07;4.78;;;;;;;6.98;57.84;100462.53;5013258;28;20041;-63
2021/05/03 01:22:51;;;;;;;5.97;4.03;;;;;;;6.97;58.17;100459.06;5012934;28;20481;-63
2021/05/03 01:25:17;;;;;;;12.93;5.18;;;;;;;6.95;58.41;100458.13;5014056;28;20127;-63
2021/05/03 01:27:42;;;;;;;6.20;5.28;;;;;;;6.96;58.06;100459.00;5014211;28;20065;-63
2021/05/03 01:30:09;;;;;;;13.43;5.80;;;;;;;6.95;58.09;100457.25;5012949;28;20477;-62
2021/05/03 01:32:35;;;;;;;5.93;4.88;;;;;;;6.94;58.53;100460.66;5013976;28;20059;-62
2021/05/03 01:35:01;;;;;;;7.35;5.18;;;;;;;6.94;58.12;100456.34;5014249;28;20489;-63
2021/05/03 01:37:27;;;;;;;7.50;4.88;;;;;;;6.95;58.17;100458.13;5013024;28;20049;-62
2021/05/03 01:39:53;;;;;;;9.35;5.70;;;;;;;6.95;58.19;100459.81;5014018;28;20499;-63
2021/05/03 01:42:18;;;;;;;5.80;4.90;;;;;;;6.93;58.00;100457.19;5014136;28;20434;-63
2021/05/03 01:44:45;;;;;;;10.45;4.72;;;;;;;6.92;58.39;100458.03;5012854;28;20052;-62
2021/05/03 01:47:10;;;;;;;6.55;4.90;;;;;;;6.92;58.09;100451.97;5013552;28;20030;-63
2021/05/03 01:49:36;;;;;;;7.22;5.97;;;;;;;6.90;58.57;100451.94;5012346;28;20060;-63
2021/05/03 01:52:04;;;;;;;11.27;6.60;;;;;;;6.92;58.21;100449.41;5013662;28;20092;-63
2021/05/03 01:54:30;;;;;;;11.32;7.28;;;;;;;6.89;58.60;100445.03;5012216;28;20041;-62
2021/05/03 01:56:55;;;;;;;7.07;5.68;;;;;;;6.90;58.17;100441.63;5013605;28;20481;-62
2021/05/03 01:59:21;;;;;;;8.10;6.13;;;;;;;6.89;58.34;100446.69;5013691;28;20042;-62
2021/05/03 02:01:46;;;;;;;13.75;6.03;;;;;;;6.88;58.61;100448.41;4995806;28;20498;-63
2021/05/03 02:04:12;;;;;;;9.30;6.43;;;;;;;6.86;58.14;100445.75;5013173;28;20528;-63
2021/05/03 02:06:38;;;;;;;10.55;6.85;;;;;;;6.86;58.31;100450.06;5013468;28;20092;-63
2021/05/03 02:09:09;;;;;;;9.02;7.03;;;;;;;6.86;58.31;100445.75;5013103;28;20124;-63
2021/05/03 02:11:35;;;;;;;10.50;6.65;;;;;;;6.86;58.61;100457.78;5017745;28;20038;-63
2021/05/03 02:14:01;;;;;;;10.48;6.78;;;;;;;6.86;58.13;100445.75;5017467;28;20034;-63
2021/05/03 02:16:26;;;;;;;11.15;7.47;;;;;;;6.84;58.66;100457.75;5017517;28;20091;-62
2021/05/03 02:18:54;;;;;;;17.35;7.50;;;;;;;6.84;58.38;100459.41;5017951;28;20542;-61
2021/05/03 02:21:19;;;;;;;13.00;7.38;;;;;;;6.83;58.07;100455.97;5016478;28;20037;-62
2021/05/03 02:23:45;;;;;;;13.70;8.20;;;;;;;6.83;58.35;100460.25;5017689;28;20041;-63
2021/05/03 02:26:10;;;;;;;9.88;7.43;;;;;;;6.81;58.51;100467.91;5016411;28;20419;-63
2021/05/03 02:28:36;;;;;;;11.95;7.50;;;;;;;6.79;58.03;100466.09;5016162;28;20113;-62
2021/05/03 02:31:01;;;;;;;15.43;7.88;;;;;;;6.78;58.70;100464.31;5016292;28;20034;-63
2021/05/03 02:33:26;;;;;;;14.32;7.93;;;;;;;6.76;58.43;100453.97;5015893;28;20034;-62
2021/05/03 02:35:52;;;;;;;11.15;7.88;;;;;;;6.76;58.22;100453.13;5016074;28;20049;-62
2021/05/03 02:38:17;;;;;;;14.68;8.50;;;;;;;6.75;58.66;100451.34;5017307;28;20041;-62
2021/05/03 02:40:43;;;;;;;12.10;8.20;;;;;;;6.74;58.54;100449.59;5015822;28;20091;-63
2021/05/03 02:43:08;;;;;;;16.80;9.65;;;;;;;6.73;58.04;100451.28;5016754;28;20038;-62
2021/05/03 02:45:35;;;;;;;19.83;10.23;;;;;;;6.74;58.49;100452.16;4999301;28;20501;-62
2021/05/03 02:48:01;;;;;;;14.18;7.93;;;;;;;6.73;58.43;100453.00;5016757;28;20034;-63
2021/05/03 02:50:27;;;;;;;15.00;9.27;;;;;;;6.72;58.44;100446.09;5016968;28;20033;-62
2021/05/03 02:52:53;;;;;;;15.52;8.80;;;;;;;6.74;58.79;100447.03;5015919;28;20100;-63
2021/05/03 02:55:20;;;;;;;11.95;8.00;;;;;;;6.70;58.22;100446.91;5015639;28;20116;-63
2021/05/03 02:57:47;;;;;;;16.65;9.00;;;;;;;6.69;58.59;100446.84;5016520;28;20060;-62
2021/05/03 03:00:18;;;;;;;13.57;8.40;;;;;;;6.69;58.71;100441.69;5015483;28;20046;-62
2021/05/03 03:02:44;;;;;;;17.67;8.73;;;;;;;6.68;58.43;100442.53;5015711;28;20050;-62
2021/05/03 03:05:12;;;;;;;10.82;7.93;;;;;;;6.67;58.17;100443.34;5016756;28;20034;-62
2021/05/03 03:07:37;;;;;;;17.40;9.30;;;;;;;6.67;58.85;100438.19;5015667;28;20497;-62
2021/05/03 03:10:04;;;;;;;14.52;8.82;;;;;;;6.66;58.74;100439.88;5016644;28;20034;-63
2021/05/03 03:12:29;;;;;;;12.82;7.93;;;;;;;6.66;58.51;100444.16;5016155;28;20038;-63
2021/05/03 03:14:55;;;;;;;17.23;8.85;;;;;;;6.65;58.75;100438.09;5015140;28;20217;-62
2021/05/03 03:17:20;;;;;;;13.82;8.43;;;;;;;6.65;58.55;100443.25;5015347;28;20041;-63
2021/05/03 03:19:47;;;;;;;14.30;7.43;;;;;;;6.65;58.46;100439.81;5016344;28;20413;-62
2021/05/03 03:22:12;;;;;;;13.55;6.68;;;;;;;6.63;58.56;100439.75;5014801;28;20038;-62
2021/05/03 03:24:38;;;;;;;13.20;8.13;;;;;;;6.62;58.83;100442.28;5016374;28;20032;-63
2021/05/03 03:27:04;;;;;;;14.05;7.95;;;;;;;6.62;58.53;100439.69;4999027;28;20057;-62
2021/05/03 03:29:29;;;;;;;10.23;7.15;;;;;;;6.60;58.29;100436.19;5016375;28;20064;-62
2021/05/03 03:31:55;;;;;;;12.68;6.93;;;;;;;6.57;58.62;100444.69;5014959;28;20424;-62
2021/05/03 03:34:24;;;;;;;11.93;7.18;;;;;;;6.59;58.18;100447.28;5016194;28;20029;-62
2021/05/03 03:36:49;;;;;;;12.65;7.00;;;;;;;6.55;58.08;100436.00;5014900;28;20037;-62
2021/05/03 03:39:15;;;;;;;17.90;8.15;;;;;;;6.54;58.50;100435.13;5016141;28;20030;-62
2021/05/03 03:41:40;;;;;;;10.13;7.03;;;;;;;6.53;58.36;100438.53;5015658;28;20030;-62
2021/05/03 03:44:06;;;;;;;11.40;7.18;;;;;;;6.51;58.11;100432.44;5016013;28;20104;-63
2021/05/03 03:46:32;;;;;;;9.77;7.20;;;;;;;6.50;58.73;100430.69;5015875;28;20049;-63
2021/05/03 03:48:58;;;;;;;12.95;7.25;;;;;;;6.49;58.31;100433.19;5014888;28;20030;-62
2021/05/03 03:51:24;;;;;;;7.85;6.50;;;;;;;6.46;58.51;100433.94;5015881;28;20527;-62
2021/05/03 03:53:50;;;;;;;8.75;6.55;;;;;;;6.47;58.01;100434.81;5014525;28;20438;-63
2021/05/03 03:56:17;;;;;;;10.43;6.50;;;;;;;6.46;57.92;100431.38;5014525;28;20117;-63
2021/05/03 03:58:44;;;;;;;8.48;6.53;;;;;;;6.44;58.37;100425.28;5014551;28;20068;-63
2021/05/03 04:01:13;;;;;;;7.32;5.82;;;;;;;6.42;58.09;100429.50;5015587;28;20398;-63
2021/05/03 04:03:47;;;;;;;10.95;7.32;;;;;;;6.39;58.73;100430.25;5014044;28;20049;-63
2021/05/03 04:09:08;;;;;;;9.38;6.25;;;;;;;6.39;58.57;100431.94;5014129;28;20124;-62
2021/05/03 04:27:35;;;;;;;11.35;6.47;;;;;;;6.34;58.62;100426.63;5014208;28;19984;-62
2021/05/03 04:30:00;;;;;;;10.98;7.38;;;;;;;6.32;58.67;100423.09;5014014;28;20042;-63
2021/05/03 04:32:26;;;;;;;8.18;5.93;;;;;;;6.34;58.36;100430.91;5013492;28;20099;-62
2021/05/03 04:34:51;;;;;;;8.63;5.50;;;;;;;6.33;58.26;100426.56;5014742;28;20044;-62
2021/05/03 04:37:16;;;;;;;11.40;6.63;;;;;;;6.32;58.23;100429.97;5013688;28;20033;-62
2021/05/03 04:39:42;;;;;;;9.15;6.45;;;;;;;6.31;58.16;100430.78;5014734;28;20091;-63
2021/05/03 04:42:07;;;;;;;11.82;6.65;;;;;;;6.30;58.68;100424.75;5014798;28;20037;-63
2021/05/03 04:44:33;;;;;;;8.35;6.32;;;;;;;6.30;58.73;100431.59;5013763;28;20033;-62
2021/05/03 04:46:58;;;;;;;9.10;6.82;;;;;;;6.29;58.67;100429.84;5013071;28;20537;-62
2021/05/03 04:49:24;;;;;;;9.68;6.18;;;;;;;6.30;58.07;100432.50;5014541;28;20524;-63
2021/05/03 04:51:49;;;;;;;13.13;7.40;;;;;;;6.29;58.28;100430.72;5014744;28;20575;-63
2021/05/03 04:54:15;;;;;;;11.77;7.03;;;;;;;6.30;58.33;100434.16;5013155;28;20034;-61
2021/05/03 04:56:40;;;;;;;10.25;6.35;;;;;;;6.30;58.34;100429.91;5013481;28;20080;-63
2021/05/03 04:59:05;;;;;;;8.30;6.57;;;;;;;6.29;58.91;100429.84;4997037;28;20088;-62
2021/05/03 05:01:31;;;;;;;10.80;6.80;;;;;;;6.27;58.68;100431.47;5013928;28;20084;-63
2021/05/03 05:03:56;;;;;;;15.18;6.63;;;;;;;6.28;58.55;100443.53;5014494;28;20570;-62
2021/05/03 05:06:22;;;;;;;12.68;6.97;;;;;;;6.27;58.78;100442.66;5014739;28;20038;-63
2021/05/03 05:08:47;;;;;;;13.23;7.80;;;;;;;6.26;59.01;100438.31;5014258;28;20517;-63
2021/05/03 05:11:12;;;;;;;11.80;6.82;;;;;;;6.27;58.64;100431.47;5013128;28;20046;-63
2021/05/03 05:13:38;;;;;;;7.43;6.07;;;;;;;6.29;58.57;100442.72;5014645;28;20096;-63
2021/05/03 05:16:04;;;;;;;10.73;6.47;;;;;;;6.27;58.20;100437.50;5013857;28;20398;-63
2021/05/03 05:18:30;;;;;;;11.35;6.93;;;;;;;6.28;58.26;100439.28;5013702;28;20394;-63
2021/05/03 05:20:55;;;;;;;9.10;6.63;;;;;;;6.27;58.87;100431.47;5013225;28;20038;-63
2021/05/03 05:23:21;;;;;;;11.70;6.07;;;;;;;6.28;58.80;100431.53;5013206;28;20034;-62
2021/05/03 05:25:47;;;;;;;10.63;6.93;;;;;;;6.28;58.92;100431.53;5014306;28;20553;-63
2021/05/03 05:28:12;;;;;;;10.60;6.85;;;;;;;6.28;58.47;100434.13;5013112;28;20116;-63
2021/05/03 05:30:38;;;;;;;9.90;6.00;;;;;;;6.29;58.29;100433.31;5013574;28;20034;-62
2021/05/03 05:33:03;;;;;;;8.02;6.32;;;;;;;6.29;58.57;100435.88;5013969;28;20048;-62
2021/05/03 05:35:29;;;;;;;10.60;7.28;;;;;;;6.29;59.09;100429.84;5014017;28;20423;-63
2021/05/03 05:37:54;;;;;;;11.30;7.53;;;;;;;6.29;58.38;100428.16;5014003;28;20037;-63
2021/05/03 05:40:20;;;;;;;11.25;6.78;;;;;;;6.29;58.63;100430.72;5012577;28;20034;-63
2021/05/03 05:42:45;;;;;;;11.10;6.47;;;;;;;6.29;58.82;100430.72;4996155;28;20107;-63
2021/05/03 05:45:11;;;;;;;10.35;7.00;;;;;;;6.30;58.31;100431.59;5012031;28;20065;-63
2021/05/03 05:47:37;;;;;;;12.27;7.20;;;;;;;6.31;58.69;100425.63;5012192;28;20033;-62
2021/05/03 05:50:03;;;;;;;16.75;6.38;;;;;;;6.30;58.34;100426.44;5012769;28;20049;-62
2021/05/03 05:52:29;;;;;;;10.70;6.35;;;;;;;6.30;58.43;100429.03;5014151;28;20069;-62
2021/05/03 05:54:54;;;;;;;11.68;7.18;;;;;;;6.32;58.54;100429.97;5013685;28;20081;-62
2021/05/03 05:57:21;;;;;;;9.85;7.18;;;;;;;6.34;59.12;100433.47;5012178;28;20057;-63
2021/05/03 05:59:46;;;;;;;21.15;6.80;;;;;;;6.34;58.49;100431.78;5013521;28;20037;-62
2021/05/03 06:02:12;;;;;;;10.98;7.43;;;;;;;6.35;58.52;100430.94;4995739;28;20042;-63
2021/05/03 06:04:37;;;;;;;12.65;7.13;;;;;;;6.34;59.11;100430.91;5014190;28;20038;-63
2021/05/03 06:07:03;;;;;;;9.98;7.03;;;;;;;6.38;58.38;100432.78;5013596;28;20482;-63
2021/05/03 06:09:28;;;;;;;8.15;6.40;;;;;;;6.40;58.69;100433.69;5013711;28;20037;-62
2021/05/03 06:11:54;;;;;;;12.43;6.72;;;;;;;6.40;58.86;100432.03;5012465;28;20489;-62
2021/05/03 06:14:20;;;;;;;11.48;6.97;;;;;;;6.41;58.66;100438.03;4995818;28;20489;-63
2021/05/03 06:16:45;;;;;;;19.08;6.60;;;;;;;6.46;58.66;100443.38;5012166;28;20119;-63
2021/05/03 06:19:11;;;;;;;12.57;7.15;;;;;;;6.46;58.83;100433.09;5012887;28;20034;-63
2021/05/03 06:21:36;;;;;;;9.02;6.47;;;;;;;6.48;58.71;100436.56;5013835;28;20096;-62
2021/05/03 06:24:02;;;;;;;10.85;6.30;;;;;;;6.50;59.06;100440.09;5013682;28;20033;-61
2021/05/03 06:26:27;;;;;;;12.63;7.80;;;;;;;6.49;58.97;100435.75;5012483;28;20128;-62
2021/05/03 06:28:53;;;;;;;13.57;6.90;;;;;;;6.50;59.03;100440.09;5012212;28;20037;-63
2021/05/03 06:31:20;;;;;;;9.48;6.95;;;;;;;6.52;59.14;100443.59;5013462;28;20042;-63
2021/05/03 06:33:45;;;;;;;11.73;7.55;;;;;;;6.53;59.01;100441.09;5011734;28;20034;-63
2021/05/03 06:36:11;;;;;;;11.18;7.50;;;;;;;6.54;58.61;100437.69;5012129;28;20034;-62
2021/05/03 06:38:36;;;;;;;8.93;6.70;;;;;;;6.56;59.00;100435.19;5011810;28;20520;-63
2021/05/03 06:41:02;;;;;;;13.07;7.68;;;;;;;6.55;58.39;100442.03;5013604;28;20041;-63
2021/05/03 06:43:27;;;;;;;10.07;6.53;;;;;;;6.58;59.07;100438.72;5013310;28;20046;-62
2021/05/03 06:45:53;;;;;;;9.00;7.13;;;;;;;6.62;59.14;100437.97;5012149;28;20145;-63
2021/05/03 06:48:19;;;;;;;8.98;6.80;;;;;;;6.60;59.04;100433.59;5013482;28;20041;-63
2021/05/03 06:50:45;;;;;;;11.57;7.45;;;;;;;6.63;58.73;100437.16;5013237;28;20057;-63
2021/05/03 06:53:14;;;;;;;11.38;7.10;;;;;;;6.66;58.64;100442.44;5012010;28;20088;-64
2021/05/03 06:55:41;;;;;;;14.50;6.93;;;;;;;6.68;58.79;100437.38;5013493;28;20041;-63
2021/05/03 06:58:06;;;;;;;12.38;8.32;;;;;;;6.70;58.55;100438.28;5016479;28;20045;-62
2021/05/03 07:00:38;;;;;;;12.05;8.02;;;;;;;6.72;58.35;100446.09;4999186;28;20034;-62
2021/05/03 07:03:07;;;;;;;14.00;9.30;;;;;;;6.73;58.96;100437.53;5016422;28;20054;-63
2021/05/03 07:05:33;;;;;;;19.40;9.13;;;;;;;6.73;58.55;100446.13;5016554;28;20069;-63
2021/05/03 07:07:59;;;;;;;16.38;8.73;;;;;;;6.77;58.53;100449.72;5016596;28;20030;-62
2021/05/03 07:10:24;;;;;;;15.77;8.73;;;;;;;6.78;58.84;100446.28;5015243;28;20038;-63
2021/05/03 07:12:51;;;;;;;14.60;8.90;;;;;;;6.80;59.09;100447.22;5016181;28;20462;-62
2021/05/03 07:15:16;;;;;;;10.73;7.57;;;;;;;6.83;59.14;100442.19;5016073;28;20508;-63
2021/05/03 07:17:43;;;;;;;13.65;8.23;;;;;;;6.83;59.34;100440.53;5015095;28;20038;-63
2021/05/03 07:20:09;;;;;;;13.07;8.10;;;;;;;6.86;59.04;100440.59;5016358;28;20026;-62
2021/05/03 07:22:36;;;;;;;12.55;7.50;;;;;;;6.87;58.86;100436.34;5016511;28;20038;-62
2021/05/03 07:25:07;;;;;;;9.35;7.38;;;;;;;6.89;59.14;100446.69;5016481;28;20068;-63
2021/05/03 07:27:32;;;;;;;12.18;7.80;;;;;;;6.92;59.15;100440.00;5015869;28;20485;-62
2021/05/03 07:29:58;;;;;;;11.35;7.78;;;;;;;6.93;59.01;100436.56;5014855;28;20029;-62
2021/05/03 07:32:24;;;;;;;12.15;6.50;;;;;;;6.96;58.86;100440.97;5016031;28;20251;-63
2021/05/03 07:34:49;;;;;;;16.35;7.57;;;;;;;6.97;58.59;100435.00;5014878;28;20034;-62
2021/05/03 07:37:15;;;;;;;13.20;8.48;;;;;;;7.00;58.87;100437.69;5014916;28;20038;-63
2021/05/03 07:39:42;;;;;;;10.52;7.38;;;;;;;7.01;58.84;100429.13;5015889;28;20026;-62
2021/05/03 07:42:09;;;;;;;9.98;8.55;;;;;;;7.03;58.60;100439.50;5014888;28;20034;-64
2021/05/03 07:44:34;;;;;;;8.98;7.13;;;;;;;7.04;59.09;100434.38;5016021;28;20132;-62
2021/05/03 07:47:00;;;;;;;12.38;8.05;;;;;;;7.08;59.20;100443.13;5014568;28;20107;-62
2021/05/03 07:49:25;;;;;;;13.38;7.05;;;;;;;7.10;58.76;100436.31;5015960;28;20026;-62
2021/05/03 07:51:51;;;;;;;11.80;7.72;;;;;;;7.11;59.42;100435.47;5015665;28;20030;-62
2021/05/03 07:54:16;;;;;;;11.10;7.57;;;;;;;7.12;59.20;100430.41;5014635;28;20040;-63
2021/05/03 07:56:43;;;;;;;13.57;8.10;;;;;;;7.14;58.74;100431.34;5014497;28;20037;-63
2021/05/03 07:59:09;;;;;;;10.40;7.75;;;;;;;7.18;59.36;100432.31;5015639;28;20065;-63
2021/05/03 08:01:35;;;;;;;9.32;7.60;;;;;;;7.17;58.83;100427.97;5015436;28;20452;-62
2021/05/03 08:04:00;;;;;;;9.38;7.80;;;;;;;7.21;58.84;100428.97;5014214;28;20034;-63
2021/05/03 08:06:26;;;;;;;10.82;7.18;;;;;;;7.22;58.87;100428.13;5015114;28;20041;-63
2021/05/03 08:08:51;;;;;;;7.97;6.57;;;;;;;7.22;59.34;100423.88;5015198;28;20066;-62
2021/05/03 08:11:18;;;;;;;10.75;7.63;;;;;;;7.23;59.15;100420.47;5015472;28;20041;-62
2021/05/03 08:13:45;;;;;;;10.05;7.63;;;;;;;7.24;58.86;100417.06;5014126;28;20037;-63
2021/05/03 08:16:13;;;;;;;12.63;8.38;;;;;;;7.27;59.08;100417.16;5015411;28;20116;-62
2021/05/03 08:18:40;;;;;;;13.02;8.38;;;;;;;7.28;59.04;100416.34;5014259;28;20037;-62
2021/05/03 08:21:07;;;;;;;11.00;8.10;;;;;;;7.30;59.00;100417.28;5015332;28;20045;-62
2021/05/03 08:23:33;;;;;;;15.55;7.88;;;;;;;7.31;58.83;100411.31;5015437;28;20034;-62
2021/05/03 08:25:59;;;;;;;8.68;7.05;;;;;;;7.35;59.09;100419.16;5015248;28;20120;-63
2021/05/03 08:28:25;;;;;;;14.52;7.57;;;;;;;7.36;58.72;100415.75;5014822;28;20076;-63
2021/05/03 08:30:51;;;;;;;11.65;8.32;;;;;;;7.38;59.04;100416.69;5014865;28;20037;-63
2021/05/03 08:33:18;;;;;;;13.65;9.00;;;;;;;7.41;59.11;100414.19;5015152;28;20030;-63
2021/05/03 08:35:44;;;;;;;10.85;8.07;;;;;;;7.43;58.55;100416.03;5015411;28;20481;-63
2021/05/03 08:38:10;;;;;;;14.95;8.93;;;;;;;7.46;58.83;100410.97;5014918;28;20033;-62
2021/05/03 08:40:35;;;;;;;12.82;8.02;;;;;;;7.50;59.10;100411.94;5013686;28;20548;-62
2021/05/03 08:43:03;;;;;;;11.18;8.85;;;;;;;7.51;59.05;100411.13;5014467;28;20120;-64
2021/05/03 08:45:29;;;;;;;15.23;8.93;;;;;;;7.55;58.84;100404.34;5013143;28;20129;-62
2021/05/03 08:48:08;;;;;;;14.32;9.05;;;;;;;7.58;58.67;100401.88;5014833;28;20116;-62
2021/05/03 08:53:28;;;;;;;12.70;9.18;;;;;;;7.66;58.78;100390.13;5014849;28;20560;-63
2021/05/03 08:55:54;;;;;;;14.45;9.65;;;;;;;7.69;58.94;100399.69;5013535;28;20041;-63
2021/05/03 08:58:19;;;;;;;14.90;10.20;;;;;;;7.72;58.77;100394.59;5014421;28;20033;-62
2021/05/03 09:00:45;;;;;;;12.20;10.32;;;;;;;7.74;58.85;100390.38;5014627;28;20076;-62
2021/05/03 09:03:11;;;;;;;15.93;9.90;;;;;;;7.78;58.76;100387.06;5014052;28;20457;-63
2021/05/03 09:05:38;;;;;;;14.02;10.70;;;;;;;7.81;58.75;100381.13;5013175;28;20030;-62
2021/05/03 09:08:04;;;;;;;16.17;11.50;;;;;;;7.85;58.88;100382.97;5014562;28;20117;-62
2021/05/03 09:10:30;;;;;;;14.93;9.98;;;;;;;7.87;58.60;100384.78;5014664;28;20034;-62
2021/05/03 09:13:12;;;;;;;14.90;10.63;;;;;;;7.88;58.86;100383.94;5014407;28;20033;-62
2021/05/03 09:15:38;;;;;;;14.70;10.07;;;;;;;7.90;58.87;100377.13;5014258;28;20037;-63
2021/05/03 09:18:04;;;;;;;15.63;10.30;;;;;;;7.88;58.79;100389.13;5014552;28;20196;-63
2021/05/03 09:20:30;;;;;;;17.70;10.32;;;;;;;7.89;58.96;100377.97;5014226;28;20037;-63
2021/05/03 09:23:01;;;;;;;15.02;10.63;;;;;;;7.88;58.84;100381.38;5013961;28;20038;-62
2021/05/03 09:25:39;;;;;;;14.93;9.40;;;;;;;7.88;58.95;100378.78;5013941;28;20033;-63
2021/05/03 09:28:10;;;;;;;12.02;9.35;;;;;;;7.90;58.93;100379.72;5014163;28;20077;-63
2021/05/03 09:30:37;;;;;;;14.63;10.27;;;;;;;7.94;58.91;100383.31;5014168;28;20108;-63
2021/05/03 09:33:22;;;;;;;15.82;9.95;;;;;;;7.96;58.94;100373.88;5013788;28;20121;-62
2021/05/03 09:35:50;;;;;;;13.82;10.50;;;;;;;7.99;58.83;100366.22;5014074;28;20712;-62
2021/05/03 09:38:49;;;;;;;13.05;8.70;;;;;;;8.01;58.48;100359.41;5012765;28;20038;-63
2021/05/03 09:41:26;;;;;;;12.77;10.07;;;;;;;8.03;58.65;100350.03;4994573;28;20045;-63
2021/05/03 09:43:56;;;;;;;10.80;9.10;;;;;;;8.05;58.71;100352.63;5012777;28;20041;-63
2021/05/03 09:46:39;;;;;;;10.88;8.93;;;;;;;8.09;58.75;100349.34;5013676;28;20038;-63
2021/05/03 09:49:12;;;;;;;11.90;9.70;;;;;;;8.12;58.63;100353.69;5012775;28;20401;-62
2021/05/03 09:51:38;;;;;;;11.93;9.50;;;;;;;8.15;58.49;100344.38;5012567;28;20038;-63
2021/05/03 09:54:05;;;;;;;12.77;8.73;;;;;;;8.17;58.47;100332.38;5012585;28;20080;-63
2021/05/03 09:57:06;;;;;;;12.40;9.60;;;;;;;8.20;58.57;100342.78;5013718;28;20489;-63
2021/05/03 09:59:44;;;;;;;11.93;9.07;;;;;;;8.22;58.81;100335.09;5013028;28;20046;-63
2021/05/03 10:02:17;;;;;;;12.95;9.05;;;;;;;8.24;58.51;100333.44;5013800;28;20469;-62
2021/05/03 10:04:47;;;;;;;12.03;8.80;;;;;;;8.23;58.61;100329.97;5013764;28;20490;-62
2021/05/03 10:07:12;;;;;;;10.00;8.43;;;;;;;8.25;58.28;100321.41;5013902;28;20044;-63
2021/05/03 10:09:38;;;;;;;12.55;8.50;;;;;;;8.25;58.49;100317.13;5013955;28;20037;-63
2021/05/03 10:12:05;;;;;;;8.35;7.45;;;;;;;8.28;58.89;100318.91;5013530;28;20038;-63
2021/05/03 10:14:31;;;;;;;9.77;7.57;;;;;;;8.31;58.34;100311.25;5013941;28;20033;-63
2021/05/03 10:16:57;;;;;;;10.88;8.15;;;;;;;8.34;58.44;100303.56;5012083;28;20038;-62
2021/05/03 10:19:24;;;;;;;8.20;7.25;;;;;;;8.34;58.47;100298.41;5013436;28;20026;-63
2021/05/03 10:21:49;;;;;;;8.63;7.72;;;;;;;8.36;58.15;100297.66;5013185;28;20068;-63
2021/05/03 10:24:18;;;;;;;10.80;7.10;;;;;;;8.38;58.54;100290.81;5012325;28;20038;-62
2021/05/03 10:26:46;;;;;;;8.02;6.53;;;;;;;8.40;58.25;100296.03;5013482;28;20038;-63
2021/05/03 10:29:29;;;;;;;10.23;7.15;;;;;;;8.43;58.69;100285.78;5013531;28;20069;-62
2021/05/03 10:31:57;;;;;;;9.48;7.22;;;;;;;8.43;58.33;100282.31;5016677;28;20042;-62
2021/05/03 10:34:48;;;;;;;10.52;6.65;;;;;;;8.45;58.01;100278.97;5017579;28;20026;-62
2021/05/03 10:37:28;;;;;;;9.00;7.35;;;;;;;8.47;58.31;100273.81;5017613;28;20104;-62
2021/05/03 10:39:54;;;;;;;8.60;7.05;;;;;;;8.49;58.24;100267.03;5016068;28;20033;-62
2021/05/03 10:42:19;;;;;;;9.50;7.07;;;;;;;8.50;57.76;100267.06;5016112;28;20042;-63
2021/05/03 10:45:04;;;;;;;10.93;7.55;;;;;;;8.51;58.17;100268.81;5015641;28;20037;-63
2021/05/03 10:47:34;;;;;;;8.32;6.45;;;;;;;8.51;57.92;100266.22;5017375;28;20069;-63
2021/05/03 10:50:00;;;;;;;7.78;6.22;;;;;;;8.51;57.75;100271.41;5017033;28;20038;-63
2021/05/03 10:52:34;;;;;;;9.10;6.40;;;;;;;8.52;58.18;100257.66;5017011;28;20045;-63
2021/05/03 10:54:59;;;;;;;10.02;6.95;;;;;;;8.54;58.09;100244.78;5015746;28;20036;-62
2021/05/03 10:57:24;;;;;;;7.80;6.38;;;;;;;8.56;58.04;100244.81;5017415;28;20120;-62
2021/05/03 10:59:53;;;;;;;7.43;6.30;;;;;;;8.53;58.00;100233.56;5016755;28;20394;-63
2021/05/03 11:02:20;;;;;;;10.95;6.05;;;;;;;8.55;58.20;100231.03;5016516;28;20081;-63
2021/05/03 11:05:09;;;;;;;8.65;6.15;;;;;;;8.57;58.09;100234.53;5015730;28;20128;-62
2021/05/03 11:07:35;;;;;;;9.18;5.70;;;;;;;8.58;57.77;100232.81;5016678;28;20038;-62
2021/05/03 11:10:01;;;;;;;7.32;6.35;;;;;;;8.58;58.04;100219.91;5016654;28;20046;-63
2021/05/03 11:12:29;;;;;;;10.45;6.95;;;;;;;8.58;57.80;100217.31;5015203;28;20046;-63
2021/05/03 11:15:21;;;;;;;9.38;6.50;;;;;;;8.57;58.05;100216.44;5016212;28;20030;-63
2021/05/03 11:18:23;;;;;;;7.45;6.10;;;;;;;8.58;57.89;100219.91;5015768;28;20038;-63
2021/05/03 11:21:08;;;;;;;11.65;7.28;;;;;;;8.59;57.95;100213.91;5016806;28;20524;-62
2021/05/03 11:23:35;;;;;;;7.95;6.00;;;;;;;8.60;57.78;100216.53;5016606;28;20052;-63
2021/05/03 11:26:02;;;;;;;8.32;5.93;;;;;;;8.62;57.66;100208.84;5015298;28;20033;-62
2021/05/03 11:28:38;;;;;;;6.72;6.00;;;;;;;8.63;57.88;100213.16;5016108;28;20121;-63
2021/05/03 11:31:12;;;;;;;7.85;5.88;;;;;;;8.66;57.79;100197.72;5016376;28;20042;-63
2021/05/03 11:33:45;;;;;;;9.27;6.22;;;;;;;8.66;57.79;100184.81;5015273;28;20100;-63
2021/05/03 11:36:18;;;;;;;6.80;5.95;;;;;;;8.68;57.77;100190.88;5016241;28;20485;-62
2021/05/03 11:44:17;;;;;;;6.20;5.50;;;;;;;8.68;57.72;100190.88;5015811;28;20050;-63
2021/05/03 11:46:43;;;;;;;7.57;6.28;;;;;;;8.67;57.71;100186.56;5014911;28;20041;-63
2021/05/03 11:49:14;;;;;;;6.35;5.03;;;;;;;8.66;57.42;100182.22;5015863;28;20064;-63
2021/05/03 11:51:43;;;;;;;7.85;5.32;;;;;;;8.67;57.32;100178.81;5016117;28;20041;-62
2021/05/03 11:54:26;;;;;;;6.03;5.30;;;;;;;8.69;57.62;100177.13;5014412;28;20037;-63
2021/05/03 11:57:03;;;;;;;11.15;5.78;;;;;;;8.68;57.55;100167.63;4998468;28;20038;-63
2021/05/03 11:59:30;;;;;;;6.35;5.05;;;;;;;8.68;57.53;100173.69;5015929;28;20470;-63